Main page
METAR-TAF:

METAR-TAF

Airports :

Clines Corners, New Mexico, United States

latitude: 35-00N, longitude: 105-40W, elevation: 7085 ft

Current weather observation

The report was made 18 minutes ago, at 16:53 UTC
Wind 6 mph from the West/Southwest
Temperature 72°F
Humidity 53%
Pressure 30.21 in. Hg
Visibility: 10 miles
Clear sky

METAR: KCQC 151653Z AUTO 25005KT 10SM CLR 22/12 A3021 RMK AO2 SLP138 T02170117

Time: 11:11 (17:11 UTC)


TAF: missing

Weather observations and forecasts of more than 4000 airports (METAR and TAF reports).

The available stations are represented by yellow and red dots on the map.

Hover mouse over dot to see the name of the station.

Then click to see weather observations and forecasts.

To change the map : click on the green buttons with a black cross to zoom in, on the green button with a dash to zoom out, or on the green arrows for adjacent maps.


METAR-TAF: